createdAt,value
2022-08-04T00:00:40.347Z,102424.28
2022-08-04T00:03:59.362Z,102427.16
2022-08-04T00:06:45.756Z,102430.63
2022-08-04T00:09:43.204Z,102432.34
2022-08-04T00:12:11.988Z,102430.06
2022-08-04T00:14:46.228Z,102448.47
2022-08-04T00:17:14.461Z,102444.59
2022-08-04T00:19:44.080Z,102441.03
2022-08-04T00:22:13.032Z,102451.28
2022-08-04T00:24:41.217Z,102472.16
2022-08-04T00:27:08.538Z,102470.75
2022-08-04T00:29:37.911Z,102477.22
2022-08-04T00:32:06.449Z,102477.53
2022-08-04T00:34:34.399Z,102473.44
2022-08-04T00:37:00.932Z,102470.53
2022-08-04T00:39:29.578Z,102479.75
2022-08-04T00:42:20.831Z,102472.78
2022-08-04T00:44:47.308Z,102487.63
2022-08-04T00:47:40.327Z,102494.72
2022-08-04T00:50:21.386Z,102495.78
2022-08-04T00:53:17.983Z,102500.81
2022-08-04T00:55:50.447Z,102495.63
2022-08-04T00:58:38.660Z,102514.25
2022-08-04T01:01:08.016Z,102516.09
2022-08-04T01:04:03.030Z,102534.91
2022-08-04T01:06:58.471Z,102537.78
2022-08-04T01:10:00.439Z,102544.69
2022-08-04T01:12:42.066Z,102555.78
2022-08-04T01:16:13.295Z,102559.19
2022-08-04T01:19:01.528Z,102559.59
2022-08-04T01:21:37.016Z,102555.06
2022-08-04T01:24:31.633Z,102559.94
2022-08-04T01:27:06.228Z,102565.16
2022-08-04T01:29:49.221Z,102568.53
2022-08-04T01:32:34.931Z,102575.72
2022-08-04T01:35:07.441Z,102574.75
2022-08-04T01:38:02.634Z,102595.59
2022-08-04T01:40:46.898Z,102596.44
2022-08-04T01:43:15.849Z,102603.16
2022-08-04T01:45:42.870Z,102594.06
2022-08-04T01:48:12.956Z,102601.66
2022-08-04T01:50:42.948Z,102610.47
2022-08-04T01:53:09.830Z,102628.84
2022-08-04T01:55:54.236Z,102646.03
2022-08-04T01:58:23.818Z,102648.13
2022-08-04T02:00:57.214Z,102666.47
2022-08-04T02:03:24.301Z,102665.69
2022-08-04T02:06:25.032Z,102660.97
2022-08-04T02:09:24.691Z,102642.28
2022-08-04T02:12:00.294Z,102637.03
2022-08-04T02:14:44.387Z,102629.25
2022-08-04T02:17:11.928Z,102622.63
2022-08-04T02:20:19.234Z,102628.25
2022-08-04T02:22:59.095Z,102626.66
2022-08-04T02:25:27.791Z,102615.22
2022-08-04T02:28:11.517Z,102606.22
2022-08-04T02:30:56.846Z,102588.41
2022-08-04T02:33:46.380Z,102549.88
2022-08-04T02:36:30.436Z,102562.53
2022-08-04T02:39:01.281Z,102549.09
2022-08-04T02:41:30.511Z,102533.22
2022-08-04T02:44:08.895Z,102499.47
2022-08-04T02:46:36.706Z,102485.28
2022-08-04T02:49:05.572Z,102481.66
2022-08-04T02:51:37.646Z,102481.84
2022-08-04T02:54:06.287Z,102478.41
2022-08-04T02:56:37.523Z,102464.03
2022-08-04T02:59:11.256Z,102466.88
2022-08-04T03:01:57.980Z,102452.31
2022-08-04T03:04:33.939Z,102456.38
2022-08-04T03:07:46.094Z,102452.63
2022-08-04T03:10:43.126Z,102468.63
2022-08-04T03:13:29.792Z,102469.38
2022-08-04T03:16:20.952Z,102459.81
2022-08-04T03:18:53.484Z,102464.13
2022-08-04T03:21:56.553Z,102471.31
2022-08-04T03:24:51.357Z,102471.50
2022-08-04T03:27:47.204Z,102471.69
2022-08-04T03:30:18.537Z,102474.28
2022-08-04T03:33:11.321Z,102476.19
2022-08-04T03:36:01.524Z,102482.41
2022-08-04T03:38:55.624Z,102481.25
2022-08-04T03:41:54.919Z,102477.03
2022-08-04T03:44:25.497Z,102478.09
2022-08-04T03:47:07.246Z,102475.59
2022-08-04T03:49:59.844Z,102473.13
2022-08-04T03:53:02.288Z,102471.03
2022-08-04T03:55:54.496Z,102479.66
2022-08-04T03:58:39.155Z,102476.00
2022-08-04T04:01:30.471Z,102464.19
2022-08-04T04:05:03.929Z,102482.78
2022-08-04T04:07:59.753Z,102496.94
2022-08-04T04:10:52.976Z,102505.78
2022-08-04T04:13:47.272Z,102506.63
2022-08-04T04:16:37.334Z,102510.38
2022-08-04T04:19:25.241Z,102512.00
2022-08-04T04:22:12.961Z,102513.44
2022-08-04T04:25:04.007Z,102513.03
2022-08-04T04:28:45.274Z,102515.16
2022-08-04T04:31:15.029Z,102522.59
2022-08-04T04:33:53.615Z,102529.84
2022-08-04T04:36:34.910Z,102533.09
2022-08-04T04:39:01.646Z,102533.09
2022-08-04T04:41:46.818Z,102527.13
2022-08-04T04:44:50.835Z,102542.56
2022-08-04T04:48:07.591Z,102548.38
2022-08-04T04:50:36.735Z,102554.31
2022-08-04T04:53:17.554Z,102558.84
2022-08-04T04:55:50.097Z,102562.38
2022-08-04T04:58:19.844Z,102572.06
2022-08-04T05:01:15.820Z,102586.03
2022-08-04T05:04:19.999Z,102596.91
2022-08-04T05:07:09.858Z,102614.47
2022-08-04T05:09:52.210Z,102619.94
2022-08-04T05:14:22.901Z,102637.72
2022-08-04T05:15:12.808Z,102682.50
2022-08-04T05:17:47.957Z,102725.09
2022-08-04T05:20:24.639Z,102756.59
2022-08-04T05:22:58.295Z,102797.91
2022-08-04T05:25:30.347Z,102758.66
2022-08-04T05:28:20.601Z,102693.28
2022-08-04T05:30:51.623Z,102631.75
2022-08-04T05:33:34.385Z,102597.66
2022-08-04T05:36:21.774Z,102571.50
2022-08-04T05:38:55.569Z,102546.81
2022-08-04T05:41:22.902Z,102479.50
2022-08-04T05:43:58.986Z,102424.22
2022-08-04T05:46:27.036Z,102364.56
2022-08-04T05:48:53.745Z,102299.91
2022-08-04T05:51:21.011Z,102225.22
2022-08-04T05:53:48.219Z,102170.53
2022-08-04T05:56:16.411Z,102097.75
2022-08-04T05:58:44.524Z,102040.06
2022-08-04T06:01:12.528Z,101988.41
2022-08-04T06:03:40.115Z,101930.00
2022-08-04T06:06:07.235Z,101869.38
2022-08-04T06:08:34.192Z,101788.19
2022-08-04T06:11:06.361Z,101705.56
2022-08-04T06:13:50.155Z,101645.22
2022-08-04T06:16:30.232Z,101546.16
2022-08-04T06:20:01.315Z,101454.66
2022-08-04T06:21:49.794Z,101412.16
2022-08-04T06:24:19.666Z,101386.09
2022-08-04T06:26:49.291Z,101359.16
2022-08-04T06:29:24.862Z,101337.13
2022-08-04T06:32:27.209Z,101325.75
2022-08-04T06:34:45.715Z,101315.72
2022-08-04T06:37:24.226Z,101306.53
2022-08-04T06:40:05.223Z,101286.69
2022-08-04T06:42:51.167Z,101274.59
2022-08-04T06:45:19.772Z,101276.59
2022-08-04T06:47:47.707Z,101267.78
2022-08-04T06:51:27.841Z,101263.28
2022-08-04T06:53:01.854Z,101253.97
2022-08-04T06:55:28.876Z,101249.16
2022-08-04T06:58:01.038Z,101252.94
2022-08-04T07:00:30.913Z,101252.53
2022-08-04T07:02:58.531Z,101247.50
2022-08-04T07:05:25.293Z,101242.38
2022-08-04T07:07:57.914Z,101237.06
2022-08-04T07:10:27.718Z,101238.75
2022-08-04T07:12:56.503Z,101242.78
2022-08-04T07:15:23.582Z,101238.03
2022-08-04T07:17:52.254Z,101239.91
2022-08-04T07:20:34.593Z,101238.78
2022-08-04T07:23:06.834Z,101243.94
2022-08-04T07:26:00.828Z,101247.25
2022-08-04T07:28:26.057Z,101246.38
2022-08-04T07:30:54.211Z,101238.78
2022-08-04T07:33:21.989Z,101227.53
2022-08-04T07:36:04.858Z,101227.97
2022-08-04T07:38:48.309Z,101224.44
2022-08-04T07:41:40.287Z,101208.03
2022-08-04T07:44:08.127Z,101188.81
2022-08-04T07:46:36.054Z,101206.09
2022-08-04T07:49:03.378Z,101201.00
2022-08-04T07:51:31.263Z,101204.31
2022-08-04T07:54:00.222Z,101202.53
2022-08-04T07:56:27.841Z,101209.00
2022-08-04T07:58:55.591Z,101194.09
2022-08-04T08:01:23.662Z,101200.16
2022-08-04T08:03:51.190Z,101191.88
2022-08-04T08:06:33.248Z,101191.88
2022-08-04T08:09:02.089Z,101198.59
2022-08-04T08:12:37.069Z,101198.84
2022-08-04T08:14:28.169Z,101207.06
2022-08-04T08:16:54.738Z,101210.41
2022-08-04T08:19:21.552Z,101213.00
2022-08-04T08:21:58.934Z,101218.28
2022-08-04T08:24:30.808Z,101236.22
2022-08-04T08:26:58.279Z,101259.78
2022-08-04T08:29:26.148Z,101241.81
2022-08-04T08:31:57.725Z,101265.03
2022-08-04T08:34:28.946Z,101283.63
2022-08-04T08:37:02.947Z,101299.66
2022-08-04T08:39:38.769Z,101302.09
2022-08-04T08:42:30.158Z,101303.00
2022-08-04T08:45:18.012Z,101316.00
2022-08-04T08:48:06.994Z,101308.47
2022-08-04T08:51:00.948Z,101321.19
2022-08-04T08:53:39.563Z,101299.28
2022-08-04T08:56:31.346Z,101277.38
2022-08-04T08:59:26.158Z,101250.38
2022-08-04T09:02:06.540Z,101254.53
2022-08-04T09:04:48.907Z,101237.16
2022-08-04T09:07:52.922Z,101190.56
2022-08-04T09:10:33.917Z,101163.50
2022-08-04T09:13:08.841Z,101099.44
2022-08-04T09:16:11.759Z,101101.03
2022-08-04T09:18:47.407Z,101087.31
2022-08-04T09:21:23.184Z,101039.88
2022-08-04T09:23:57.687Z,101021.13
2022-08-04T09:26:44.241Z,100983.75
2022-08-04T09:29:47.079Z,100966.38
2022-08-04T09:32:35.450Z,100992.28
2022-08-04T09:35:13.341Z,101016.97
2022-08-04T09:37:48.474Z,100989.34
2022-08-04T09:41:03.812Z,100953.09
2022-08-04T09:44:52.682Z,100958.84
2022-08-04T09:47:03.701Z,100925.66
2022-08-04T09:49:36.609Z,100944.50
2022-08-04T09:52:16.828Z,100848.47
2022-08-04T09:55:07.475Z,100870.66
2022-08-04T09:57:46.834Z,100914.66
2022-08-04T10:00:16.951Z,100920.88
2022-08-04T10:02:55.105Z,100945.97
2022-08-04T10:05:26.011Z,100887.50
2022-08-04T10:07:59.702Z,100902.47
2022-08-04T10:10:58.452Z,100842.16
2022-08-04T10:13:38.289Z,100819.97
2022-08-04T10:16:26.483Z,100808.44
2022-08-04T10:19:20.594Z,100819.94
2022-08-04T10:22:30.752Z,100819.69
2022-08-04T10:25:05.465Z,100800.56
2022-08-04T10:28:00.359Z,100840.25
2022-08-04T10:30:28.569Z,100890.56
2022-08-04T10:33:12.908Z,100838.06
2022-08-04T10:35:50.990Z,100756.00
2022-08-04T10:38:30.842Z,100769.59
2022-08-04T10:41:06.554Z,100728.34
2022-08-04T10:43:36.162Z,100752.09
2022-08-04T10:46:38.099Z,100744.94
2022-08-04T10:49:09.027Z,100767.19
2022-08-04T10:51:59.562Z,100819.91
2022-08-04T10:54:50.894Z,100757.41
2022-08-04T10:57:31.470Z,100816.88
2022-08-04T11:00:06.317Z,100809.81
2022-08-04T11:02:58.672Z,100786.28
2022-08-04T11:05:34.439Z,100780.00
2022-08-04T11:08:20.770Z,100707.34
2022-08-04T11:10:52.032Z,100694.38
2022-08-04T11:13:22.063Z,100715.13
2022-08-04T11:15:57.168Z,100733.16
2022-08-04T11:18:32.129Z,100737.28
2022-08-04T11:21:16.660Z,100641.69
2022-08-04T11:23:53.437Z,100558.69
2022-08-04T11:26:24.458Z,100607.03
2022-08-04T11:29:09.993Z,100626.97
2022-08-04T11:31:41.543Z,100645.34
2022-08-04T11:34:22.902Z,100534.59
2022-08-04T11:37:00.932Z,100454.66
2022-08-04T11:39:38.174Z,100390.75
2022-08-04T11:42:23.872Z,100332.69
2022-08-04T11:44:55.757Z,100321.13
2022-08-04T11:47:39.701Z,100307.09
2022-08-04T11:50:23.417Z,100320.78
2022-08-04T11:52:53.595Z,100215.50
2022-08-04T11:55:22.540Z,100263.66
2022-08-04T11:57:54.020Z,100391.03
2022-08-04T12:00:22.410Z,100356.22
2022-08-04T12:03:20.627Z,100417.31
2022-08-04T12:06:06.724Z,100422.16
2022-08-04T12:08:51.742Z,100478.59
2022-08-04T12:11:51.079Z,100438.88
2022-08-04T12:14:51.784Z,100462.38
2022-08-04T12:17:52.457Z,100466.28
2022-08-04T12:20:35.607Z,100557.53
2022-08-04T12:23:14.956Z,100641.28
2022-08-04T12:25:46.595Z,100657.66
2022-08-04T12:28:22.397Z,100676.53
2022-08-04T12:31:04.380Z,100570.88
2022-08-04T12:34:04.841Z,100492.59
2022-08-04T12:36:43.183Z,100490.72
2022-08-04T12:39:15.451Z,100514.94
2022-08-04T12:42:06.448Z,100512.50
2022-08-04T12:44:39.111Z,100528.81
2022-08-04T12:47:36.157Z,100566.47
2022-08-04T12:50:04.208Z,100572.56
2022-08-04T12:55:34.379Z,100662.75
2022-08-04T12:58:03.892Z,100624.63
2022-08-04T13:00:40.729Z,100541.00
2022-08-04T13:03:17.803Z,100486.31
2022-08-04T13:05:45.457Z,100482.50
2022-08-04T13:08:13.140Z,100400.78
2022-08-04T13:10:43.509Z,100335.19
2022-08-04T13:13:19.136Z,100204.94
2022-08-04T13:15:57.595Z,100283.66
2022-08-04T13:18:36.708Z,100255.53
2022-08-04T13:21:21.450Z,100385.38
2022-08-04T13:24:20.252Z,100385.53
2022-08-04T13:27:08.839Z,100252.75
2022-08-04T13:30:25.291Z,100140.63
2022-08-04T13:32:32.145Z,100232.16
2022-08-04T13:35:01.677Z,100228.47
2022-08-04T13:37:35.922Z,100283.69
2022-08-04T13:40:05.068Z,100229.06
2022-08-04T13:42:34.181Z,100125.91
2022-08-04T13:45:03.940Z,100212.38
2022-08-04T13:47:34.090Z,100055.41
2022-08-04T13:50:12.877Z,100047.44
2022-08-04T13:52:41.785Z,100079.22
2022-08-04T13:55:18.996Z,100197.06
2022-08-04T13:57:49.832Z,100190.84
2022-08-04T14:00:17.034Z,100268.13
2022-08-04T14:03:02.592Z,100245.22
2022-08-04T14:05:36.745Z,100346.38
2022-08-04T14:08:26.382Z,100515.00
2022-08-04T14:10:56.947Z,100595.59
2022-08-04T14:13:41.434Z,100572.31
2022-08-04T14:16:21.702Z,100397.38
2022-08-04T14:18:59.000Z,100252.16
2022-08-04T14:21:25.474Z,100216.28
2022-08-04T14:23:54.255Z,100246.34
2022-08-04T14:26:32.609Z,100352.53
2022-08-04T14:29:26.457Z,100720.91
2022-08-04T14:32:02.025Z,100760.88
2022-08-04T14:34:30.553Z,100878.91
2022-08-04T14:37:16.501Z,100969.28
2022-08-04T14:40:18.788Z,101022.34
2022-08-04T14:42:41.604Z,100977.72
2022-08-04T14:45:08.804Z,100972.84
2022-08-04T14:47:40.739Z,100938.03
2022-08-04T14:50:09.375Z,101006.91
2022-08-04T14:52:36.935Z,100994.41
2022-08-04T14:55:30.552Z,100922.81
2022-08-04T14:58:37.892Z,100936.41
2022-08-04T15:00:44.360Z,100845.78
2022-08-04T15:03:11.289Z,100805.06
2022-08-04T15:05:54.813Z,101013.50
2022-08-04T15:08:29.060Z,101131.22
2022-08-04T15:10:59.600Z,101137.28
2022-08-04T15:13:26.702Z,101144.31
2022-08-04T15:16:07.752Z,101143.66
2022-08-04T15:18:37.116Z,101173.44
2022-08-04T15:21:05.644Z,101221.34
2022-08-04T15:23:39.597Z,101218.59
2022-08-04T15:26:16.891Z,101214.63
2022-08-04T15:28:50.120Z,101218.69
2022-08-04T15:32:05.669Z,101235.28
2022-08-04T15:34:10.399Z,101264.66
2022-08-04T15:36:57.858Z,101289.94
2022-08-04T15:39:27.526Z,101294.75
2022-08-04T15:42:16.168Z,101314.25
2022-08-04T15:45:03.293Z,101304.38
2022-08-04T15:47:29.874Z,101307.41
2022-08-04T15:50:10.903Z,101308.44
2022-08-04T15:53:01.373Z,101314.56
2022-08-04T15:55:43.198Z,101321.03
2022-08-04T15:58:13.270Z,101325.75
2022-08-04T16:00:54.058Z,101329.06
2022-08-04T16:03:58.106Z,101335.47
2022-08-04T16:06:22.217Z,101342.81
2022-08-04T16:08:57.248Z,101343.63
2022-08-04T16:11:32.603Z,101344.38
2022-08-04T16:13:59.640Z,101352.00
2022-08-04T16:16:30.674Z,101350.50
2022-08-04T16:19:46.209Z,101369.88
2022-08-04T16:22:32.947Z,101382.84
2022-08-04T16:25:00.836Z,101361.09
2022-08-04T16:27:42.620Z,101367.22
2022-08-04T16:30:14.875Z,101366.06
2022-08-04T16:32:44.513Z,101385.66
2022-08-04T16:35:28.443Z,101374.59
2022-08-04T16:38:12.941Z,101406.75
2022-08-04T16:40:44.122Z,101404.31
2022-08-04T16:43:13.190Z,101381.22
2022-08-04T16:45:44.399Z,101389.16
2022-08-04T16:48:11.919Z,101386.97
2022-08-04T16:50:53.563Z,101390.31
2022-08-04T16:53:51.513Z,101381.41
2022-08-04T16:56:10.168Z,101381.31
2022-08-04T16:58:37.126Z,101381.41
2022-08-04T17:01:32.367Z,101387.72
2022-08-04T17:04:04.773Z,101378.66
2022-08-04T17:06:36.876Z,101369.19
2022-08-04T17:09:11.055Z,101377.34
2022-08-04T17:11:37.703Z,101380.72
2022-08-04T17:14:06.096Z,101392.41
2022-08-04T17:16:35.319Z,101399.22
2022-08-04T17:19:02.031Z,101368.06
2022-08-04T17:21:31.469Z,101317.28
2022-08-04T17:24:16.209Z,101303.50
2022-08-04T17:26:54.058Z,101335.41
2022-08-04T17:29:43.556Z,101350.63
2022-08-04T17:32:20.779Z,101378.81
2022-08-04T17:34:57.479Z,101355.47
2022-08-04T17:37:39.536Z,101324.69
2022-08-04T17:40:11.443Z,101286.38
2022-08-04T17:42:39.854Z,101279.38
2022-08-04T17:47:59.160Z,101268.66
2022-08-04T17:50:31.320Z,101252.63
2022-08-04T17:52:59.697Z,101253.22
2022-08-04T17:55:47.524Z,101266.66
2022-08-04T17:58:22.253Z,101265.22
2022-08-04T18:01:16.579Z,101269.69
2022-08-04T18:03:53.440Z,101270.31
2022-08-04T18:06:22.830Z,101274.31
2022-08-04T18:08:58.130Z,101275.97
2022-08-04T18:11:29.663Z,101286.72
2022-08-04T18:14:08.400Z,101282.94
2022-08-04T18:16:43.856Z,101289.50
2022-08-04T18:19:15.511Z,101286.94
2022-08-04T18:22:00.508Z,101291.19
2022-08-04T18:24:35.915Z,101290.13
2022-08-04T18:27:23.807Z,101290.63
2022-08-04T18:30:32.549Z,101307.25
2022-08-04T18:32:51.301Z,101287.13
2022-08-04T18:35:24.910Z,101280.22
2022-08-04T18:38:23.789Z,101282.41
2022-08-04T18:40:53.017Z,101281.34
2022-08-04T18:43:28.135Z,101268.63
2022-08-04T18:45:57.584Z,101251.19
2022-08-04T18:48:36.115Z,101251.56
2022-08-04T18:51:10.771Z,101242.72
2022-08-04T18:53:55.078Z,101236.47
2022-08-04T18:56:30.088Z,101209.81
2022-08-04T18:59:03.708Z,101194.56
2022-08-04T19:02:13.359Z,101193.03
2022-08-04T19:04:33.165Z,101186.22
2022-08-04T19:09:54.227Z,101175.53
2022-08-04T19:12:26.618Z,101182.34
2022-08-04T19:14:58.201Z,101194.22
2022-08-04T19:17:57.125Z,101198.47
2022-08-04T19:20:24.230Z,101183.09
2022-08-04T19:24:29.423Z,101193.06
2022-08-04T19:25:58.856Z,101202.56
2022-08-04T19:28:29.831Z,101204.50
2022-08-04T19:30:57.877Z,101205.22
2022-08-04T19:33:25.321Z,101198.72
2022-08-04T19:35:52.347Z,101198.31
2022-08-04T19:38:20.572Z,101202.06
2022-08-04T19:40:50.533Z,101209.56
2022-08-04T19:43:20.695Z,101211.72
2022-08-04T19:45:50.323Z,101219.56
2022-08-04T19:48:19.473Z,101221.56
2022-08-04T19:50:46.696Z,101223.84
2022-08-04T19:53:18.849Z,101224.31
2022-08-04T19:55:49.422Z,101231.97
2022-08-04T19:58:17.750Z,101230.63
2022-08-04T20:00:44.858Z,101235.50
2022-08-04T20:03:20.034Z,101242.59
2022-08-04T20:08:35.118Z,101234.78
2022-08-04T20:11:01.615Z,101242.25
2022-08-04T20:13:37.142Z,101246.81
2022-08-04T20:16:05.022Z,101245.53
2022-08-04T20:18:56.680Z,101230.50
2022-08-04T20:24:40.743Z,101239.44
2022-08-04T20:26:58.909Z,101238.63
2022-08-04T20:29:40.460Z,101230.97
2022-08-04T20:32:08.669Z,101234.88
2022-08-04T20:34:35.327Z,101234.50
2022-08-04T20:37:02.995Z,101235.59
2022-08-04T20:39:30.765Z,101232.53
2022-08-04T20:41:57.842Z,101222.34
2022-08-04T20:44:24.515Z,101233.44
2022-08-04T20:46:51.194Z,101222.69
2022-08-04T20:49:17.795Z,101226.81
2022-08-04T20:51:44.420Z,101228.56
2022-08-04T20:54:16.925Z,101220.44
2022-08-04T20:56:53.020Z,101232.66
2022-08-04T20:59:20.814Z,101229.56
2022-08-04T21:01:53.688Z,101225.56
2022-08-04T21:04:32.849Z,101251.09
2022-08-04T21:07:01.209Z,101254.75
2022-08-04T21:09:38.288Z,101266.78
2022-08-04T21:12:10.986Z,101275.72
2022-08-04T21:14:56.679Z,101285.34
2022-08-04T21:17:56.667Z,101300.81
2022-08-04T21:20:12.797Z,101314.28
2022-08-04T21:22:40.791Z,101330.09
2022-08-04T21:25:14.522Z,101356.44
2022-08-04T21:27:43.412Z,101376.41
2022-08-04T21:30:24.225Z,101394.75
2022-08-04T21:32:53.415Z,101430.47
2022-08-04T21:35:22.057Z,101454.78
2022-08-04T21:38:04.100Z,101470.75
2022-08-04T21:40:50.844Z,101490.31
2022-08-04T21:43:20.756Z,101503.88
2022-08-04T21:45:50.382Z,101525.56
2022-08-04T21:48:17.160Z,101540.97
2022-08-04T21:50:44.155Z,101543.03
2022-08-04T21:53:19.780Z,101543.69
2022-08-04T21:56:05.046Z,101549.22
2022-08-04T21:58:34.879Z,101562.69
2022-08-04T22:01:05.959Z,101568.25
2022-08-04T22:03:51.923Z,101578.25
2022-08-04T22:06:28.524Z,101604.97
2022-08-04T22:08:56.204Z,101610.13
2022-08-04T22:11:49.041Z,101619.28
2022-08-04T22:14:15.536Z,101635.09
2022-08-04T22:16:42.463Z,101644.63
2022-08-04T22:19:10.760Z,101637.06
2022-08-04T22:21:39.100Z,101634.44
2022-08-04T22:24:14.008Z,101661.91
2022-08-04T22:26:40.909Z,101665.25
2022-08-04T22:29:07.398Z,101674.44
2022-08-04T22:31:56.201Z,101692.00
2022-08-04T22:34:24.691Z,101676.84
2022-08-04T22:36:51.344Z,101676.88
2022-08-04T22:39:20.228Z,101699.59
2022-08-04T22:42:04.089Z,101694.81
2022-08-04T22:44:32.309Z,101684.75
2022-08-04T22:47:00.259Z,101699.09
2022-08-04T22:49:31.282Z,101697.03
2022-08-04T22:51:58.135Z,101700.97
2022-08-04T22:54:25.928Z,101701.22
2022-08-04T22:56:55.075Z,101701.56
2022-08-04T22:59:23.993Z,101712.56
2022-08-04T23:01:59.102Z,101693.50
2022-08-04T23:04:29.407Z,101683.63
2022-08-04T23:06:56.129Z,101689.00
2022-08-04T23:09:27.003Z,101677.03
2022-08-04T23:12:27.165Z,101675.56
2022-08-04T23:14:58.213Z,101671.00
2022-08-04T23:17:27.272Z,101679.22
2022-08-04T23:19:57.624Z,101665.94
2022-08-04T23:22:41.763Z,101664.78
2022-08-04T23:25:16.476Z,101665.94
2022-08-04T23:27:50.578Z,101660.38
2022-08-04T23:30:20.870Z,101653.41
2022-08-04T23:32:48.690Z,101643.91
2022-08-04T23:35:15.406Z,101652.53
2022-08-04T23:37:56.274Z,101658.69
2022-08-04T23:40:32.378Z,101659.75
2022-08-04T23:43:00.444Z,101652.03
2022-08-04T23:46:06.865Z,101653.06
2022-08-04T23:48:19.279Z,101633.91
2022-08-04T23:50:47.763Z,101627.53
2022-08-04T23:53:18.702Z,101625.34
2022-08-04T23:55:49.335Z,101631.50
2022-08-04T23:58:18.768Z,101643.72
